Terminal Aerodrome Forecast
Issued by NWS

Home | Current Version | Previous Version | Text Only | Print | Product List | Glossary On
Versions: 1 2 3 4 5 6 7 8 9 10 11 12 13 14 15 16 17 18 19 20 21 22 23 24 25 26 27
000
FTUS43 KIND 010214 AAA
TAFLAF
TAF AMD
KLAF 010214Z 0102/0124 11006KT 4SM BR BKN007 OVC040
      TEMPO 0102/0105 4SM -RA BR
     FM010500 13005KT P6SM VCTS BKN015 OVC040CB
     FM011000 18004KT 3SM BR OVC005
     FM011700 36008KT P6SM BKN025 OVC040 PROB30 0119/0124 3SM TSRA
      BKN025CB OVC040
      AMD LTD TO CLD VIS AND WIND TIL 011300=

USA.gov is the U.S. government's official web portal to all federal, state and local government web resources and services.